createdAt,value
2018-07-30T00:01:58.914Z,99.50
2018-07-30T00:05:02.060Z,99.60
2018-07-30T00:08:05.253Z,99.70
2018-07-30T00:11:08.308Z,99.90
2018-07-30T00:14:11.667Z,99.80
2018-07-30T00:17:14.738Z,99.80
2018-07-30T00:20:17.868Z,99.90
2018-07-30T00:23:20.930Z,99.50
2018-07-30T00:26:23.991Z,98.80
2018-07-30T00:29:26.997Z,99.70
2018-07-30T00:32:30.059Z,99.50
2018-07-30T00:35:33.128Z,99.80
2018-07-30T00:38:36.244Z,99.90
2018-07-30T00:41:39.430Z,99.70
2018-07-30T00:44:42.641Z,99.90
2018-07-30T00:47:46.164Z,99.50
2018-07-30T00:50:50.470Z,99.30
2018-07-30T00:53:54.015Z,99.80
2018-07-30T00:56:57.072Z,99.90
2018-07-30T01:00:00.326Z,99.90
2018-07-30T01:03:03.456Z,99.90
2018-07-30T01:06:06.511Z,99.90
2018-07-30T01:09:10.178Z,99.90
2018-07-30T01:12:13.214Z,99.90
2018-07-30T01:15:16.284Z,99.90
2018-07-30T01:18:19.383Z,99.90
2018-07-30T01:21:22.539Z,99.90
2018-07-30T01:24:25.490Z,99.90
2018-07-30T01:27:28.486Z,99.90
2018-07-30T01:30:31.721Z,99.90
2018-07-30T01:33:34.857Z,99.90
2018-07-30T01:36:37.914Z,99.90
2018-07-30T01:39:40.959Z,99.90
2018-07-30T01:42:44.117Z,99.90
2018-07-30T01:45:47.161Z,99.90
2018-07-30T01:48:50.276Z,99.90
2018-07-30T01:51:53.366Z,99.90
2018-07-30T01:54:56.444Z,99.90
2018-07-30T01:57:59.564Z,99.90
2018-07-30T02:01:02.787Z,99.90
2018-07-30T02:04:06.098Z,99.90
2018-07-30T02:07:09.864Z,99.90
2018-07-30T02:10:13.185Z,99.90
2018-07-30T02:13:16.230Z,99.90
2018-07-30T02:16:19.253Z,99.90
2018-07-30T02:19:22.265Z,99.90
2018-07-30T02:22:25.321Z,99.90
2018-07-30T02:25:28.378Z,99.90
2018-07-30T02:28:31.437Z,99.90
2018-07-30T02:31:34.555Z,99.90
2018-07-30T02:34:37.638Z,99.90
2018-07-30T02:37:40.835Z,99.90
2018-07-30T02:40:43.899Z,99.90
2018-07-30T02:43:47.043Z,99.90
2018-07-30T02:46:50.114Z,99.90
2018-07-30T02:49:53.157Z,99.90
2018-07-30T02:52:56.209Z,99.90
2018-07-30T02:55:59.250Z,99.90
2018-07-30T02:59:02.384Z,99.90
2018-07-30T03:02:07.754Z,99.90
2018-07-30T03:05:11.984Z,99.90
2018-07-30T03:08:15.060Z,99.90
2018-07-30T03:11:18.158Z,99.90
2018-07-30T03:14:21.236Z,99.90
2018-07-30T03:17:24.345Z,99.90
2018-07-30T03:20:27.589Z,99.90
2018-07-30T03:23:30.650Z,99.90
2018-07-30T03:26:33.707Z,99.90
2018-07-30T03:29:36.870Z,99.90
2018-07-30T03:32:40.146Z,99.90
2018-07-30T03:35:43.294Z,99.90
2018-07-30T03:38:46.367Z,99.90
2018-07-30T03:41:49.434Z,99.90
2018-07-30T03:44:52.503Z,99.90
2018-07-30T03:47:55.531Z,99.90
2018-07-30T03:50:58.482Z,99.90
2018-07-30T03:54:01.559Z,99.90
2018-07-30T03:57:04.902Z,99.90
2018-07-30T04:00:10.126Z,99.90
2018-07-30T04:03:13.139Z,99.90
2018-07-30T04:06:16.362Z,99.90
2018-07-30T04:09:19.393Z,99.90
2018-07-30T04:12:22.607Z,99.90
2018-07-30T04:15:25.719Z,99.90
2018-07-30T04:18:28.789Z,99.90
2018-07-30T04:21:31.809Z,99.90
2018-07-30T04:24:34.901Z,99.90
2018-07-30T04:27:37.969Z,99.90
2018-07-30T04:30:41.107Z,99.90
2018-07-30T04:33:44.114Z,99.90
2018-07-30T04:36:47.360Z,99.90
2018-07-30T04:39:50.429Z,99.90
2018-07-30T04:42:53.556Z,99.90
2018-07-30T04:45:56.645Z,99.90
2018-07-30T04:48:59.738Z,99.90
2018-07-30T04:52:02.829Z,99.90
2018-07-30T04:55:05.858Z,99.90
2018-07-30T04:58:08.905Z,99.90
2018-07-30T05:01:12.052Z,99.90
2018-07-30T05:04:15.058Z,99.90
2018-07-30T05:07:18.161Z,99.90
2018-07-30T05:10:21.287Z,99.90
2018-07-30T05:13:24.282Z,99.90
2018-07-30T05:16:27.693Z,99.90
2018-07-30T05:19:30.847Z,99.90
2018-07-30T05:22:33.894Z,99.90
2018-07-30T05:25:37.209Z,99.90
2018-07-30T05:28:40.249Z,99.90
2018-07-30T05:31:43.260Z,99.90
2018-07-30T05:34:46.371Z,99.90
2018-07-30T05:37:49.730Z,99.90
2018-07-30T05:40:52.827Z,99.90
2018-07-30T05:43:55.878Z,99.90
2018-07-30T05:46:58.962Z,99.90
2018-07-30T05:50:02.274Z,99.90
2018-07-30T05:53:05.419Z,99.90
2018-07-30T05:56:08.969Z,99.90
2018-07-30T05:59:12.062Z,99.90
2018-07-30T06:02:16.102Z,99.90
2018-07-30T06:05:19.167Z,99.90
2018-07-30T06:08:22.333Z,99.90
2018-07-30T06:11:25.394Z,99.90
2018-07-30T06:14:35.222Z,99.90
2018-07-30T06:17:38.301Z,99.90
2018-07-30T06:20:41.431Z,99.90
2018-07-30T06:23:44.505Z,99.90
2018-07-30T06:26:47.534Z,99.90
2018-07-30T06:29:50.731Z,99.90
2018-07-30T06:32:53.806Z,99.90
2018-07-30T06:35:56.776Z,99.90
2018-07-30T06:38:59.771Z,99.90
2018-07-30T06:42:02.858Z,99.90
2018-07-30T06:45:06.108Z,99.90
2018-07-30T06:48:09.166Z,99.90
2018-07-30T06:51:12.227Z,99.90
2018-07-30T06:54:15.345Z,99.90
2018-07-30T06:57:18.435Z,99.90
2018-07-30T07:00:21.474Z,99.90
2018-07-30T07:03:24.543Z,99.90
2018-07-30T07:06:27.595Z,99.90
2018-07-30T07:09:30.676Z,99.90
2018-07-30T07:12:33.734Z,99.90
2018-07-30T07:15:36.870Z,99.90
2018-07-30T07:18:40.365Z,99.90
2018-07-30T07:21:43.389Z,99.90
2018-07-30T07:24:46.446Z,99.60
2018-07-30T07:27:49.460Z,99.50
2018-07-30T07:30:52.569Z,99.90
2018-07-30T07:33:55.603Z,99.90
2018-07-30T07:36:58.586Z,99.50
2018-07-30T07:40:01.770Z,99.20
2018-07-30T07:43:04.938Z,99.90
2018-07-30T07:46:08.390Z,99.90
2018-07-30T07:49:11.642Z,99.90
2018-07-30T07:52:14.641Z,99.90
2018-07-30T07:55:17.598Z,99.90
2018-07-30T07:58:20.661Z,99.90
2018-07-30T08:01:23.684Z,99.90
2018-07-30T08:04:26.700Z,99.90
2018-07-30T08:07:29.772Z,99.90
2018-07-30T08:10:32.845Z,99.90
2018-07-30T08:13:35.991Z,99.90
2018-07-30T08:16:39.354Z,99.90
2018-07-30T08:19:42.368Z,99.90
2018-07-30T08:22:45.348Z,99.90
2018-07-30T08:25:49.062Z,99.90
2018-07-30T08:28:52.115Z,99.90
2018-07-30T08:31:55.085Z,99.90
2018-07-30T08:34:58.258Z,99.90
2018-07-30T08:38:01.213Z,99.70
2018-07-30T08:41:04.261Z,99.60
2018-07-30T08:44:07.502Z,97.80
2018-07-30T08:54:41.247Z,45.90
2018-07-30T08:57:44.209Z,45.90
2018-07-30T09:00:48.150Z,48.00
2018-07-30T09:03:51.214Z,45.40
2018-07-30T09:06:54.253Z,45.80
2018-07-30T09:09:57.215Z,47.60
2018-07-30T09:13:00.385Z,48.30
2018-07-30T09:16:03.710Z,47.00
2018-07-30T09:19:06.856Z,45.50
2018-07-30T09:22:10.198Z,48.30
2018-07-30T09:25:13.458Z,45.30
2018-07-30T09:31:19.760Z,45.80
2018-07-30T09:34:23.071Z,43.80
2018-07-30T09:37:26.175Z,44.80
2018-07-30T09:40:29.218Z,44.40
2018-07-30T09:43:32.469Z,47.20
2018-07-30T09:46:35.637Z,46.70
2018-07-30T09:49:38.675Z,45.70
2018-07-30T09:52:41.868Z,44.50
2018-07-30T09:55:44.837Z,44.10
2018-07-30T09:58:47.839Z,45.10
2018-07-30T10:01:50.816Z,44.50
2018-07-30T10:04:53.789Z,42.40
2018-07-30T10:07:56.776Z,43.50
2018-07-30T10:10:59.893Z,44.00
2018-07-30T10:14:03.218Z,44.70
2018-07-30T10:17:06.274Z,42.60
2018-07-30T10:20:09.598Z,42.90
2018-07-30T10:23:12.758Z,43.90
2018-07-30T10:26:15.739Z,43.20
2018-07-30T10:29:18.750Z,41.60
2018-07-30T10:32:21.725Z,41.80
2018-07-30T10:35:24.938Z,42.40
2018-07-30T10:38:28.022Z,42.80
2018-07-30T10:41:31.485Z,42.30
2018-07-30T10:44:34.713Z,41.70
2018-07-30T10:47:37.827Z,41.70
2018-07-30T10:50:41.002Z,41.90
2018-07-30T10:53:43.986Z,43.50
2018-07-30T10:56:47.174Z,42.60
2018-07-30T10:59:50.141Z,43.10
2018-07-30T11:02:53.125Z,43.60
2018-07-30T11:05:56.136Z,42.70
2018-07-30T11:08:59.082Z,41.20
2018-07-30T11:12:02.583Z,41.40
2018-07-30T11:15:05.722Z,40.30
2018-07-30T11:18:08.765Z,40.80
2018-07-30T11:21:11.865Z,41.70
2018-07-30T11:24:14.820Z,40.60
2018-07-30T11:27:17.781Z,38.30
2018-07-30T11:30:20.760Z,37.60
2018-07-30T11:33:23.726Z,38.40
2018-07-30T11:36:34.148Z,41.80
2018-07-30T11:39:37.942Z,38.00
2018-07-30T11:42:48.112Z,39.30
2018-07-30T11:45:51.186Z,36.80
2018-07-30T11:48:55.030Z,37.00
2018-07-30T11:51:59.141Z,38.10
2018-07-30T11:55:02.864Z,37.50
2018-07-30T11:58:06.054Z,37.70
2018-07-30T12:01:09.192Z,37.50
2018-07-30T12:04:12.446Z,36.80
2018-07-30T12:07:16.884Z,36.90
2018-07-30T12:10:19.866Z,37.10
2018-07-30T12:16:26.084Z,37.10
2018-07-30T12:19:29.014Z,38.30
2018-07-30T12:22:32.256Z,35.20
2018-07-30T12:25:35.412Z,36.90
2018-07-30T12:28:48.409Z,34.40
2018-07-30T12:31:51.350Z,34.30
2018-07-30T12:37:57.264Z,35.50
2018-07-30T12:41:00.335Z,34.10
2018-07-30T12:44:03.444Z,34.10
2018-07-30T12:47:06.524Z,35.00
2018-07-30T12:50:09.559Z,33.70
2018-07-30T12:53:12.753Z,35.90
2018-07-30T12:56:15.706Z,35.60
2018-07-30T12:59:18.773Z,36.70
2018-07-30T13:02:21.781Z,37.60
2018-07-30T13:05:25.091Z,37.90
2018-07-30T13:08:28.139Z,37.40
2018-07-30T13:11:31.336Z,35.80
2018-07-30T13:14:34.369Z,37.40
2018-07-30T13:17:37.523Z,37.30
2018-07-30T13:20:40.560Z,36.80
2018-07-30T13:23:43.586Z,35.60
2018-07-30T13:26:46.670Z,37.90
2018-07-30T13:29:49.552Z,36.50
2018-07-30T13:32:52.536Z,37.40
2018-07-30T13:35:55.504Z,37.90
2018-07-30T13:38:58.469Z,38.00
2018-07-30T13:42:01.506Z,38.70
2018-07-30T13:45:05.205Z,38.30
2018-07-30T13:48:08.192Z,37.70
2018-07-30T13:51:11.179Z,37.80
2018-07-30T13:54:14.173Z,36.70
2018-07-30T13:57:17.149Z,36.80
2018-07-30T14:00:20.162Z,34.90
2018-07-30T14:03:23.180Z,34.50
2018-07-30T14:06:26.189Z,36.10
2018-07-30T14:09:29.153Z,37.00
2018-07-30T14:12:32.193Z,37.30
2018-07-30T14:15:35.253Z,38.80
2018-07-30T14:18:38.395Z,39.70
2018-07-30T14:21:41.449Z,38.70
2018-07-30T14:24:44.444Z,39.10
2018-07-30T14:27:47.442Z,41.10
2018-07-30T14:33:53.374Z,38.70
2018-07-30T14:36:56.349Z,39.50
2018-07-30T14:40:00.910Z,39.10
2018-07-30T14:43:03.994Z,40.50
2018-07-30T14:46:07.005Z,38.90
2018-07-30T14:49:10.012Z,39.50
2018-07-30T14:55:15.973Z,39.90
2018-07-30T14:58:18.969Z,40.20
2018-07-30T15:01:21.936Z,39.00
2018-07-30T15:04:24.943Z,36.50
2018-07-30T15:07:27.918Z,36.40
2018-07-30T15:10:30.885Z,37.00
2018-07-30T15:13:33.849Z,36.40
2018-07-30T15:16:37.424Z,36.80
2018-07-30T15:19:40.445Z,36.50
2018-07-30T15:22:43.414Z,37.00
2018-07-30T15:25:46.424Z,37.20
2018-07-30T15:28:52.368Z,38.10
2018-07-30T15:31:55.345Z,38.70
2018-07-30T15:34:58.343Z,38.60
2018-07-30T15:38:01.374Z,39.00
2018-07-30T15:41:04.414Z,38.50
2018-07-30T15:44:07.532Z,38.40
2018-07-30T15:47:10.628Z,38.70
2018-07-30T15:50:13.615Z,38.00
2018-07-30T15:53:16.553Z,38.00
2018-07-30T15:56:19.541Z,36.80
2018-07-30T15:59:22.516Z,37.20
2018-07-30T16:02:25.499Z,37.90
2018-07-30T16:05:28.523Z,37.50
2018-07-30T16:08:31.528Z,37.40
2018-07-30T16:11:34.670Z,37.60
2018-07-30T16:14:37.664Z,37.40
2018-07-30T16:17:40.721Z,37.20
2018-07-30T16:23:46.576Z,37.50
2018-07-30T16:26:49.515Z,37.60
2018-07-30T16:29:52.450Z,37.90
2018-07-30T16:32:55.390Z,38.30
2018-07-30T16:35:58.372Z,38.70
2018-07-30T16:39:01.390Z,37.80
2018-07-30T16:42:04.644Z,38.00
2018-07-30T16:45:08.626Z,37.20
2018-07-30T16:48:11.702Z,37.90
2018-07-30T16:51:14.729Z,37.70
2018-07-30T16:54:17.705Z,38.00
2018-07-30T16:57:20.957Z,38.50
2018-07-30T17:00:23.991Z,38.10
2018-07-30T17:03:27.043Z,38.00
2018-07-30T17:06:30.296Z,37.30
2018-07-30T17:09:33.365Z,38.00
2018-07-30T17:12:36.511Z,38.70
2018-07-30T17:15:39.594Z,37.10
2018-07-30T17:18:42.946Z,37.00
2018-07-30T17:21:45.991Z,37.30
2018-07-30T17:24:49.553Z,37.20
2018-07-30T17:27:52.746Z,38.60
2018-07-30T17:30:55.850Z,36.00
2018-07-30T17:33:59.046Z,36.00
2018-07-30T17:37:02.372Z,36.50
2018-07-30T17:40:07.176Z,36.80
2018-07-30T17:43:10.388Z,37.10
2018-07-30T17:46:13.545Z,37.40
2018-07-30T17:49:16.733Z,36.40
2018-07-30T17:52:19.829Z,37.30
2018-07-30T17:55:23.113Z,36.20
2018-07-30T17:58:26.206Z,38.30
2018-07-30T18:01:29.432Z,37.60
2018-07-30T18:04:34.020Z,38.00
2018-07-30T18:07:37.279Z,41.20
2018-07-30T18:10:40.546Z,43.60
2018-07-30T18:13:43.681Z,43.90
2018-07-30T18:16:46.852Z,43.30
2018-07-30T18:19:49.972Z,45.30
2018-07-30T18:22:53.185Z,46.10
2018-07-30T18:25:56.471Z,47.50
2018-07-30T18:28:59.683Z,48.10
2018-07-30T18:32:02.912Z,48.50
2018-07-30T18:35:06.160Z,48.50
2018-07-30T18:38:09.406Z,48.40
2018-07-30T18:41:12.626Z,49.70
2018-07-30T18:44:15.900Z,50.10
2018-07-30T18:47:19.041Z,50.90
2018-07-30T18:50:22.155Z,51.00
2018-07-30T18:53:25.481Z,51.90
2018-07-30T18:56:29.151Z,52.10
2018-07-30T18:59:32.340Z,52.40
2018-07-30T19:02:35.571Z,52.40
2018-07-30T19:05:39.004Z,52.70
2018-07-30T19:08:42.155Z,53.20
2018-07-30T19:11:53.950Z,53.40
2018-07-30T19:14:57.233Z,54.00
2018-07-30T19:18:00.441Z,53.50
2018-07-30T19:21:03.628Z,53.20
2018-07-30T19:27:10.985Z,53.70
2018-07-30T19:30:14.175Z,53.60
2018-07-30T19:33:17.388Z,53.80
2018-07-30T19:36:21.058Z,53.40
2018-07-30T19:39:24.412Z,52.90
2018-07-30T19:42:27.571Z,52.90
2018-07-30T19:45:30.735Z,53.10
2018-07-30T19:48:33.928Z,52.70
2018-07-30T19:51:37.191Z,51.40
2018-07-30T19:54:40.423Z,52.90
2018-07-30T19:57:43.786Z,52.60
2018-07-30T20:06:52.821Z,52.70
2018-07-30T20:09:55.916Z,52.70
2018-07-30T20:12:59.191Z,52.90
2018-07-30T20:16:02.270Z,52.00
2018-07-30T20:19:05.418Z,52.70
2018-07-30T20:22:08.557Z,52.50
2018-07-30T20:25:12.382Z,52.00
2018-07-30T20:28:15.373Z,52.20
2018-07-30T20:31:23.336Z,50.90
2018-07-30T20:34:26.290Z,52.20
2018-07-30T20:37:34.729Z,51.70
2018-07-30T20:40:37.734Z,51.50
2018-07-30T20:43:40.677Z,51.20
2018-07-30T20:46:43.755Z,51.10
2018-07-30T20:49:46.746Z,51.20
2018-07-30T20:52:49.749Z,51.20
2018-07-30T20:55:52.723Z,51.20
2018-07-30T20:58:55.725Z,51.20
2018-07-30T21:01:58.745Z,51.50
2018-07-30T21:05:02.249Z,51.10
2018-07-30T21:08:05.320Z,50.80
2018-07-30T21:11:08.318Z,51.90
2018-07-30T21:14:11.285Z,51.20
2018-07-30T21:17:14.417Z,51.20
2018-07-30T21:20:17.529Z,51.90
2018-07-30T21:23:20.663Z,53.10
2018-07-30T21:26:23.722Z,52.90
2018-07-30T21:29:27.653Z,53.20
2018-07-30T21:32:30.693Z,52.90
2018-07-30T21:35:33.767Z,53.00
2018-07-30T21:38:38.877Z,53.20
2018-07-30T21:41:42.083Z,53.40
2018-07-30T21:44:45.178Z,53.30
2018-07-30T21:47:48.367Z,53.50
2018-07-30T21:50:51.491Z,54.00
2018-07-30T21:53:54.593Z,54.60
2018-07-30T21:56:57.815Z,53.70
2018-07-30T22:00:00.957Z,53.70
2018-07-30T22:03:05.931Z,54.20
2018-07-30T22:06:09.662Z,54.50
2018-07-30T22:09:14.113Z,54.60
2018-07-30T22:12:19.803Z,54.60
2018-07-30T22:19:12.148Z,54.60
2018-07-30T22:22:16.291Z,54.80
2018-07-30T22:25:19.394Z,53.30
2018-07-30T22:28:24.619Z,54.30
2018-07-30T22:31:28.102Z,54.50
2018-07-30T22:34:32.323Z,54.30
2018-07-30T22:37:35.399Z,53.60
2018-07-30T22:40:38.646Z,53.70
2018-07-30T22:43:41.797Z,54.30
2018-07-30T22:46:45.317Z,54.00
2018-07-30T22:49:49.991Z,54.00
2018-07-30T22:52:53.050Z,53.60
2018-07-30T22:55:56.139Z,54.00
2018-07-30T22:58:59.223Z,54.20
2018-07-30T23:02:02.542Z,54.70
2018-07-30T23:05:07.986Z,54.60
2018-07-30T23:08:12.277Z,53.90
2018-07-30T23:11:15.402Z,54.60
2018-07-30T23:14:18.483Z,54.80
2018-07-30T23:17:21.614Z,53.80
2018-07-30T23:20:24.714Z,54.90
2018-07-30T23:23:28.666Z,54.50
2018-07-30T23:26:32.177Z,55.60
2018-07-30T23:29:35.259Z,55.20
2018-07-30T23:32:38.791Z,54.90
2018-07-30T23:35:41.862Z,55.00
2018-07-30T23:38:45.365Z,55.40
2018-07-30T23:41:48.542Z,55.40
2018-07-30T23:44:51.612Z,55.30
2018-07-30T23:47:54.854Z,55.60
2018-07-30T23:50:57.933Z,55.80
2018-07-30T23:54:01.306Z,55.60
2018-07-30T23:57:04.587Z,55.80
